createdAt,value
2018-09-28T00:00:54.258Z,66.15
2018-09-28T00:03:23.214Z,67.02
2018-09-28T00:05:52.121Z,66.89
2018-09-28T00:08:21.091Z,67.45
2018-09-28T00:10:50.080Z,68.33
2018-09-28T00:13:19.176Z,68.06
2018-09-28T00:15:48.287Z,69.03
2018-09-28T00:18:17.383Z,69.25
2018-09-28T00:20:46.771Z,69.87
2018-09-28T00:23:15.669Z,69.56
2018-09-28T00:25:44.663Z,69.92
2018-09-28T00:28:13.923Z,71.38
2018-09-28T00:30:43.017Z,70.65
2018-09-28T00:33:11.973Z,72.02
2018-09-28T00:35:41.195Z,73.09
2018-09-28T00:38:10.161Z,75.55
2018-09-28T00:40:39.108Z,76.74
2018-09-28T00:43:08.115Z,76.86
2018-09-28T00:45:37.130Z,77.35
2018-09-28T00:48:06.096Z,78.23
2018-09-28T00:50:35.014Z,79.10
2018-09-28T00:53:04.128Z,78.65
2018-09-28T00:55:33.174Z,79.03
2018-09-28T00:58:02.272Z,79.44
2018-09-28T01:00:31.492Z,80.60
2018-09-28T01:03:00.497Z,79.57
2018-09-28T01:05:29.617Z,79.96
2018-09-28T01:07:58.870Z,81.06
2018-09-28T01:10:27.858Z,81.57
2018-09-28T01:12:56.812Z,81.24
2018-09-28T01:15:25.817Z,81.47
2018-09-28T01:17:54.903Z,81.33
2018-09-28T01:20:23.892Z,81.94
2018-09-28T01:22:53.035Z,82.37
2018-09-28T01:25:22.091Z,81.95
2018-09-28T01:27:51.065Z,81.84
2018-09-28T01:30:20.093Z,81.54
2018-09-28T01:32:49.173Z,81.23
2018-09-28T01:35:18.198Z,82.44
2018-09-28T01:37:47.181Z,82.51
2018-09-28T01:40:16.238Z,83.00
2018-09-28T01:42:45.412Z,82.91
2018-09-28T01:45:14.380Z,82.21
2018-09-28T01:47:43.432Z,82.73
2018-09-28T01:50:12.536Z,82.64
2018-09-28T01:52:41.598Z,82.40
2018-09-28T01:55:10.698Z,83.03
2018-09-28T01:57:39.890Z,82.48
2018-09-28T02:00:08.952Z,82.20
2018-09-28T02:02:37.981Z,81.09
2018-09-28T02:05:06.947Z,80.86
2018-09-28T02:07:35.881Z,81.58
2018-09-28T02:10:04.812Z,81.33
2018-09-28T02:12:33.794Z,81.47
2018-09-28T02:15:02.718Z,81.67
2018-09-28T02:17:31.813Z,81.78
2018-09-28T02:20:00.738Z,82.08
2018-09-28T02:22:29.664Z,81.88
2018-09-28T02:24:58.601Z,81.20
2018-09-28T02:27:27.529Z,81.51
2018-09-28T02:29:56.489Z,81.86
2018-09-28T02:32:25.410Z,81.89
2018-09-28T02:34:54.339Z,82.14
2018-09-28T02:37:23.248Z,81.58
2018-09-28T02:39:52.214Z,80.29
2018-09-28T02:42:21.130Z,79.33
2018-09-28T02:44:50.455Z,79.50
2018-09-28T02:47:19.381Z,78.63
2018-09-28T02:49:48.330Z,78.13
2018-09-28T02:52:17.302Z,77.88
2018-09-28T02:54:46.242Z,77.48
2018-09-28T02:57:15.261Z,77.86
2018-09-28T02:59:44.370Z,77.63
2018-09-28T03:02:13.341Z,77.73
2018-09-28T03:04:42.785Z,77.17
2018-09-28T03:07:11.742Z,77.30
2018-09-28T03:09:40.672Z,79.17
2018-09-28T03:12:09.630Z,78.15
2018-09-28T03:14:38.597Z,77.46
2018-09-28T03:17:07.506Z,78.27
2018-09-28T03:19:36.473Z,78.19
2018-09-28T03:22:05.405Z,77.27
2018-09-28T03:24:34.501Z,77.61
2018-09-28T03:27:03.455Z,77.26
2018-09-28T03:29:32.417Z,75.96
2018-09-28T03:32:01.371Z,76.08
2018-09-28T03:34:30.346Z,74.54
2018-09-28T03:36:59.454Z,73.56
2018-09-28T03:39:28.412Z,72.44
2018-09-28T03:41:57.403Z,71.84
2018-09-28T03:44:26.353Z,72.20
2018-09-28T03:46:55.299Z,73.08
2018-09-28T03:49:24.493Z,72.34
2018-09-28T03:51:53.420Z,72.96
2018-09-28T03:54:22.390Z,72.50
2018-09-28T03:56:51.355Z,73.32
2018-09-28T03:59:20.285Z,72.87
2018-09-28T04:01:49.233Z,73.04
2018-09-28T04:04:18.207Z,72.48
2018-09-28T04:06:47.137Z,72.55
2018-09-28T04:09:16.092Z,71.31
2018-09-28T04:11:45.058Z,71.03
2018-09-28T04:14:14.095Z,70.55
2018-09-28T04:16:43.160Z,70.83
2018-09-28T04:19:12.094Z,70.54
2018-09-28T04:21:45.250Z,69.48
2018-09-28T04:24:14.197Z,68.75
2018-09-28T04:26:43.150Z,68.32
2018-09-28T04:29:12.101Z,68.51
2018-09-28T04:31:41.065Z,68.59
2018-09-28T04:34:10.077Z,67.56
2018-09-28T04:36:39.017Z,67.77
2018-09-28T04:39:07.943Z,68.57
2018-09-28T04:41:36.926Z,68.18
2018-09-28T04:44:05.854Z,67.84
2018-09-28T04:46:35.279Z,67.93
2018-09-28T04:49:04.274Z,67.99
2018-09-28T04:51:33.212Z,67.31
2018-09-28T04:54:02.445Z,67.17
2018-09-28T04:56:31.665Z,67.29
2018-09-28T04:59:00.593Z,67.12
2018-09-28T05:01:29.670Z,66.54
2018-09-28T05:03:58.619Z,67.37
2018-09-28T05:06:27.565Z,68.48
2018-09-28T05:08:56.514Z,68.65
2018-09-28T05:11:25.464Z,68.33
2018-09-28T05:13:54.363Z,68.41
2018-09-28T05:16:23.315Z,67.71
2018-09-28T05:18:52.266Z,68.35
2018-09-28T05:21:21.197Z,67.52
2018-09-28T05:23:50.151Z,66.81
2018-09-28T05:26:19.044Z,67.28
2018-09-28T05:28:48.064Z,66.93
2018-09-28T05:31:17.013Z,66.87
2018-09-28T05:33:45.943Z,67.17
2018-09-28T05:36:14.958Z,66.76
2018-09-28T05:38:43.893Z,66.92
2018-09-28T05:41:12.841Z,67.50
2018-09-28T05:43:41.834Z,66.68
2018-09-28T05:46:10.809Z,66.47
2018-09-28T05:48:39.766Z,65.76
2018-09-28T05:51:08.754Z,66.47
2018-09-28T05:53:38.281Z,66.33
2018-09-28T05:56:07.312Z,65.54
2018-09-28T05:58:41.772Z,66.17
2018-09-28T06:01:16.014Z,65.69
2018-09-28T06:03:50.364Z,65.09
2018-09-28T06:06:19.278Z,65.21
2018-09-28T06:08:48.263Z,65.16
2018-09-28T06:11:17.252Z,65.20
2018-09-28T06:13:46.154Z,65.05
2018-09-28T06:16:15.041Z,64.83
2018-09-28T06:18:43.991Z,64.95
2018-09-28T06:21:12.885Z,64.70
2018-09-28T06:23:41.822Z,63.89
2018-09-28T06:26:10.936Z,64.74
2018-09-28T06:28:39.812Z,64.31
2018-09-28T06:31:08.765Z,64.22
2018-09-28T06:33:37.702Z,64.40
2018-09-28T06:36:06.671Z,63.95
2018-09-28T06:38:35.744Z,64.67
2018-09-28T06:41:04.677Z,64.58
2018-09-28T06:43:33.583Z,64.86
2018-09-28T06:46:02.558Z,64.77
2018-09-28T06:48:31.540Z,64.33
2018-09-28T06:51:00.472Z,64.73
2018-09-28T06:53:29.406Z,64.70
2018-09-28T06:55:58.307Z,65.23
2018-09-28T06:58:27.283Z,65.14
2018-09-28T07:00:56.212Z,64.64
2018-09-28T07:03:25.270Z,65.12
2018-09-28T07:05:54.259Z,65.17
2018-09-28T07:08:23.145Z,64.87
2018-09-28T07:10:52.151Z,64.72
2018-09-28T07:13:21.127Z,64.54
2018-09-28T07:15:50.088Z,65.38
2018-09-28T07:18:19.027Z,65.08
2018-09-28T07:20:48.026Z,64.71
2018-09-28T07:23:17.309Z,64.87
2018-09-28T07:25:46.240Z,64.73
2018-09-28T07:28:15.133Z,64.58
2018-09-28T07:30:44.136Z,64.34
2018-09-28T07:33:13.048Z,63.61
2018-09-28T07:35:42.000Z,63.56
2018-09-28T07:38:10.976Z,63.93
2018-09-28T07:40:39.892Z,63.78
2018-09-28T07:43:08.816Z,63.72
2018-09-28T07:45:37.761Z,63.55
2018-09-28T07:48:06.756Z,63.06
2018-09-28T07:50:35.696Z,62.05
2018-09-28T07:53:04.642Z,61.72
2018-09-28T07:55:33.613Z,61.38
2018-09-28T07:58:02.538Z,61.71
2018-09-28T08:00:31.649Z,61.47
2018-09-28T08:03:00.660Z,60.94
2018-09-28T08:05:29.617Z,61.55
2018-09-28T08:07:58.545Z,61.84
2018-09-28T08:10:27.479Z,62.04
2018-09-28T08:12:56.443Z,61.83
2018-09-28T08:15:25.657Z,61.81
2018-09-28T08:17:54.673Z,61.24
2018-09-28T08:20:23.589Z,61.52
2018-09-28T08:22:52.587Z,61.06
2018-09-28T08:25:21.846Z,61.31
2018-09-28T08:27:50.990Z,60.64
2018-09-28T08:30:19.977Z,60.56
2018-09-28T08:32:48.939Z,60.46
2018-09-28T08:35:18.244Z,59.83
2018-09-28T08:37:47.140Z,60.13
2018-09-28T08:40:16.060Z,59.79
2018-09-28T08:42:45.061Z,59.47
2018-09-28T08:45:13.993Z,59.48
2018-09-28T08:47:42.984Z,59.56
2018-09-28T08:50:11.905Z,59.12
2018-09-28T08:52:40.899Z,58.50
2018-09-28T08:55:09.881Z,58.38
2018-09-28T08:57:39.057Z,58.34
2018-09-28T09:00:08.017Z,58.04
2018-09-28T09:02:37.287Z,58.55
2018-09-28T09:05:06.206Z,58.14
2018-09-28T09:07:35.127Z,58.15
2018-09-28T09:10:04.086Z,56.55
2018-09-28T09:12:33.065Z,56.79
2018-09-28T09:15:02.045Z,56.52
2018-09-28T09:17:30.965Z,54.95
2018-09-28T09:19:59.959Z,54.62
2018-09-28T09:22:28.918Z,55.07
2018-09-28T09:24:58.061Z,54.86
2018-09-28T09:27:27.065Z,54.89
2018-09-28T09:29:56.053Z,54.94
2018-09-28T09:32:25.108Z,54.39
2018-09-28T09:34:54.075Z,53.16
2018-09-28T09:37:23.063Z,53.06
2018-09-28T09:39:52.057Z,50.71
2018-09-28T09:42:20.966Z,51.34
2018-09-28T09:44:49.894Z,50.33
2018-09-28T09:47:18.873Z,50.81
2018-09-28T09:49:47.794Z,50.27
2018-09-28T09:52:16.757Z,49.89
2018-09-28T09:54:45.965Z,49.48
2018-09-28T09:57:14.919Z,49.22
2018-09-28T09:59:43.848Z,49.18
2018-09-28T10:02:19.176Z,48.39
2018-09-28T10:04:48.106Z,48.94
2018-09-28T10:07:17.021Z,50.10
2018-09-28T10:09:46.095Z,48.78
2018-09-28T10:12:15.082Z,49.17
2018-09-28T10:14:44.063Z,48.93
2018-09-28T10:17:13.032Z,50.13
2018-09-28T10:19:42.053Z,50.39
2018-09-28T10:22:12.552Z,50.56
2018-09-28T10:24:41.442Z,50.96
2018-09-28T10:27:10.358Z,50.55
2018-09-28T10:29:39.389Z,50.87
2018-09-28T10:32:08.347Z,50.63
2018-09-28T10:34:37.359Z,51.05
2018-09-28T10:37:06.405Z,50.94
2018-09-28T10:39:35.377Z,52.04
2018-09-28T10:42:04.304Z,52.03
2018-09-28T10:44:33.257Z,52.15
2018-09-28T10:47:02.496Z,52.61
2018-09-28T10:49:31.540Z,53.18
2018-09-28T10:52:00.620Z,52.81
2018-09-28T10:54:29.503Z,52.88
2018-09-28T10:56:58.452Z,53.17
2018-09-28T10:59:27.551Z,53.46
2018-09-28T11:01:56.696Z,52.99
2018-09-28T11:04:25.766Z,52.66
2018-09-28T11:06:54.679Z,53.80
2018-09-28T11:09:23.672Z,52.76
2018-09-28T11:11:52.671Z,53.17
2018-09-28T11:14:21.615Z,53.87
2018-09-28T11:16:50.724Z,53.06
2018-09-28T11:19:19.755Z,52.64
2018-09-28T11:21:48.847Z,52.35
2018-09-28T11:24:17.842Z,50.62
2018-09-28T11:26:47.058Z,48.46
2018-09-28T11:29:16.129Z,48.44
2018-09-28T11:31:45.038Z,48.59
2018-09-28T11:34:14.545Z,50.19
2018-09-28T11:36:44.105Z,51.10
2018-09-28T11:39:13.117Z,50.27
2018-09-28T11:41:41.989Z,50.56
2018-09-28T11:44:11.189Z,48.88
2018-09-28T11:46:40.180Z,48.68
2018-09-28T11:49:09.183Z,49.49
2018-09-28T11:51:38.471Z,49.37
2018-09-28T11:54:07.436Z,48.44
2018-09-28T11:56:36.385Z,48.48
2018-09-28T11:59:05.619Z,48.35
2018-09-28T12:01:34.570Z,48.38
2018-09-28T12:04:03.475Z,48.28
2018-09-28T12:06:32.600Z,48.64
2018-09-28T12:09:01.404Z,49.02
2018-09-28T12:11:30.390Z,49.73
2018-09-28T12:13:59.338Z,49.77
2018-09-28T12:16:30.580Z,50.11
2018-09-28T12:18:59.499Z,50.30
2018-09-28T12:21:28.515Z,50.98
2018-09-28T12:23:57.422Z,50.62
2018-09-28T12:26:26.371Z,50.50
2018-09-28T12:28:55.276Z,50.17
2018-09-28T12:31:24.239Z,49.83
2018-09-28T12:33:53.215Z,50.03
2018-09-28T12:36:22.248Z,49.78
2018-09-28T12:38:51.587Z,49.70
2018-09-28T12:41:20.520Z,50.26
2018-09-28T12:43:49.459Z,50.50
2018-09-28T12:46:18.425Z,50.48
2018-09-28T12:48:47.363Z,50.55
2018-09-28T12:51:16.274Z,52.57
2018-09-28T12:53:45.317Z,51.65
2018-09-28T12:56:14.240Z,52.03
2018-09-28T12:58:43.191Z,51.63
2018-09-28T13:01:12.372Z,50.66
2018-09-28T13:03:41.460Z,50.17
2018-09-28T13:06:10.434Z,50.76
2018-09-28T13:08:39.345Z,50.21
2018-09-28T13:11:08.324Z,51.21
2018-09-28T13:13:37.356Z,49.64
2018-09-28T13:16:06.598Z,49.63
2018-09-28T13:18:35.553Z,50.33
2018-09-28T13:21:04.670Z,49.90
2018-09-28T13:23:33.601Z,49.89
2018-09-28T13:26:02.537Z,49.65
2018-09-28T13:28:32.191Z,50.90
2018-09-28T13:31:01.254Z,49.78
2018-09-28T13:33:30.401Z,49.68
2018-09-28T13:35:59.318Z,50.63
2018-09-28T13:38:28.704Z,49.89
2018-09-28T13:40:57.579Z,50.81
2018-09-28T13:43:26.650Z,52.79
2018-09-28T13:45:55.707Z,53.04
2018-09-28T13:48:24.690Z,52.40
2018-09-28T13:50:54.207Z,52.83
2018-09-28T13:53:23.111Z,52.68
2018-09-28T13:55:52.098Z,52.16
2018-09-28T13:58:21.129Z,52.52
2018-09-28T14:00:50.033Z,52.66
2018-09-28T14:03:19.052Z,51.38
2018-09-28T14:05:47.995Z,51.03
2018-09-28T14:08:16.955Z,51.49
2018-09-28T14:10:45.921Z,50.85
2018-09-28T14:13:14.801Z,50.88
2018-09-28T14:15:43.767Z,50.20
2018-09-28T14:18:12.821Z,49.23
2018-09-28T14:20:41.879Z,49.46
2018-09-28T14:23:11.038Z,50.03
2018-09-28T14:25:40.164Z,49.98
2018-09-28T14:28:09.346Z,50.37
2018-09-28T14:30:38.228Z,51.49
2018-09-28T14:33:07.145Z,51.32
2018-09-28T14:35:36.135Z,51.38
2018-09-28T14:38:05.178Z,51.21
2018-09-28T14:40:57.088Z,51.48
2018-09-28T14:43:45.117Z,50.58
2018-09-28T14:46:33.736Z,50.19
2018-09-28T14:49:23.247Z,49.03
2018-09-28T14:52:12.434Z,47.62
2018-09-28T14:55:14.153Z,45.68
2018-09-28T14:57:47.288Z,44.93
2018-09-28T15:00:34.483Z,44.84
2018-09-28T15:06:52.148Z,45.41
2018-09-28T15:09:47.048Z,45.67
2018-09-28T15:13:12.369Z,46.26
2018-09-28T15:19:04.878Z,48.32
2018-09-28T15:21:58.037Z,48.34
2018-09-28T15:24:46.879Z,48.86
2018-09-28T15:31:49.535Z,50.21
2018-09-28T15:34:27.418Z,51.42
2018-09-28T15:36:56.334Z,51.33
2018-09-28T15:39:25.251Z,51.12
2018-09-28T15:41:54.248Z,51.24
2018-09-28T15:44:23.221Z,50.60
2018-09-28T15:46:52.187Z,50.59
2018-09-28T15:49:21.131Z,51.11
2018-09-28T15:51:50.150Z,51.75
2018-09-28T15:54:19.114Z,51.57
2018-09-28T15:56:48.129Z,51.81
2018-09-28T15:59:17.074Z,51.84
2018-09-28T16:01:46.066Z,52.86
2018-09-28T16:04:15.069Z,53.25
2018-09-28T16:06:44.055Z,53.01
2018-09-28T16:09:13.002Z,53.11
2018-09-28T16:11:41.963Z,53.45
2018-09-28T16:14:11.014Z,52.54
2018-09-28T16:16:39.971Z,52.23
2018-09-28T16:19:08.936Z,51.94
2018-09-28T16:21:37.972Z,52.81
2018-09-28T16:24:07.067Z,53.20
2018-09-28T16:26:36.016Z,53.07
2018-09-28T16:29:05.100Z,52.99
2018-09-28T16:31:34.108Z,54.13
2018-09-28T16:34:04.049Z,54.37
2018-09-28T16:36:33.000Z,54.42
2018-09-28T16:39:01.973Z,54.21
2018-09-28T16:41:30.951Z,54.16
2018-09-28T16:43:59.942Z,54.65
2018-09-28T16:46:28.929Z,55.30
2018-09-28T16:48:57.873Z,55.60
2018-09-28T16:51:26.805Z,55.39
2018-09-28T16:53:55.772Z,55.74
2018-09-28T16:56:24.717Z,54.99
2018-09-28T16:58:53.738Z,56.04
2018-09-28T17:01:22.675Z,56.74
2018-09-28T17:03:51.700Z,56.24
2018-09-28T17:06:20.660Z,57.41
2018-09-28T17:08:49.654Z,57.00
2018-09-28T17:11:18.610Z,57.80
2018-09-28T17:13:47.519Z,57.28
2018-09-28T17:16:16.463Z,57.58
2018-09-28T17:18:45.448Z,58.09
2018-09-28T17:21:14.430Z,57.24
2018-09-28T17:23:43.394Z,57.11
2018-09-28T17:26:12.345Z,57.30
2018-09-28T17:28:41.418Z,57.28
2018-09-28T17:31:10.269Z,56.58
2018-09-28T17:33:39.260Z,56.77
2018-09-28T17:36:08.162Z,57.27
2018-09-28T17:38:37.406Z,57.11
2018-09-28T17:41:06.356Z,57.16
2018-09-28T17:43:35.287Z,57.28
2018-09-28T17:46:04.258Z,57.21
2018-09-28T17:48:33.180Z,56.50
2018-09-28T17:51:02.140Z,56.94
2018-09-28T17:53:31.080Z,56.92
2018-09-28T17:56:00.040Z,56.52
2018-09-28T17:58:28.970Z,56.90
2018-09-28T18:00:58.242Z,57.10
2018-09-28T18:03:27.163Z,56.96
2018-09-28T18:05:56.272Z,57.35
2018-09-28T18:08:25.272Z,57.41
2018-09-28T18:10:54.256Z,57.62
2018-09-28T18:13:23.304Z,57.74
2018-09-28T18:15:52.274Z,57.79
2018-09-28T18:18:21.199Z,57.70
2018-09-28T18:20:50.174Z,58.47
2018-09-28T18:23:19.124Z,58.06
2018-09-28T18:25:48.048Z,58.67
2018-09-28T18:28:17.036Z,58.50
2018-09-28T18:30:46.025Z,58.43
2018-09-28T18:33:15.536Z,58.47
2018-09-28T18:35:44.497Z,58.46
2018-09-28T18:38:13.851Z,59.01
2018-09-28T18:40:42.789Z,58.85
2018-09-28T18:43:11.749Z,58.79
2018-09-28T18:45:41.297Z,58.90
2018-09-28T18:48:10.219Z,58.94
2018-09-28T18:50:39.201Z,59.71
2018-09-28T18:53:08.170Z,59.54
2018-09-28T18:55:37.082Z,59.27
2018-09-28T18:58:06.181Z,59.05
2018-09-28T19:00:35.186Z,59.45
2018-09-28T19:03:04.134Z,59.70
2018-09-28T19:05:33.065Z,60.03
2018-09-28T19:08:02.060Z,60.30
2018-09-28T19:10:31.024Z,60.67
2018-09-28T19:13:00.024Z,60.14
2018-09-28T19:15:28.992Z,60.74
2018-09-28T19:17:57.946Z,60.70
2018-09-28T19:20:27.015Z,61.54
2018-09-28T19:22:55.948Z,61.37
2018-09-28T19:25:24.885Z,61.21
2018-09-28T19:27:53.906Z,61.61
2018-09-28T19:30:23.891Z,61.79
2018-09-28T19:32:52.860Z,61.60
2018-09-28T19:35:21.833Z,62.28
2018-09-28T19:37:50.800Z,62.61
2018-09-28T19:40:19.761Z,62.67
2018-09-28T19:42:48.718Z,62.95
2018-09-28T19:45:17.682Z,62.92
2018-09-28T19:47:46.686Z,63.57
2018-09-28T19:50:15.629Z,64.03
2018-09-28T19:52:44.533Z,63.64
2018-09-28T19:55:29.156Z,64.13
2018-09-28T19:58:04.247Z,64.60
2018-09-28T20:00:33.196Z,64.39
2018-09-28T20:03:02.108Z,64.73
2018-09-28T20:05:31.067Z,65.03
2018-09-28T20:08:01.260Z,64.35
2018-09-28T20:10:30.200Z,64.81
2018-09-28T20:12:59.156Z,65.37
2018-09-28T20:15:28.074Z,65.29
2018-09-28T20:17:57.049Z,65.01
2018-09-28T20:20:25.994Z,65.19
2018-09-28T20:22:54.953Z,65.50
2018-09-28T20:25:24.257Z,66.22
2018-09-28T20:27:53.226Z,65.71
2018-09-28T20:30:22.187Z,66.30
2018-09-28T20:32:51.198Z,66.58
2018-09-28T20:35:20.234Z,66.47
2018-09-28T20:37:49.331Z,66.60
2018-09-28T20:40:18.284Z,66.59
2018-09-28T20:42:47.228Z,66.93
2018-09-28T20:45:16.187Z,66.95
2018-09-28T20:47:45.143Z,66.74
2018-09-28T20:50:14.173Z,67.21
2018-09-28T20:52:43.278Z,67.16
2018-09-28T20:55:12.178Z,67.41
2018-09-28T20:57:41.648Z,67.44
2018-09-28T21:00:10.648Z,67.54
2018-09-28T21:02:39.567Z,68.02
2018-09-28T21:05:08.671Z,67.41
2018-09-28T21:07:37.663Z,67.93
2018-09-28T21:10:06.610Z,68.32
2018-09-28T21:12:35.594Z,68.25
2018-09-28T21:15:04.532Z,68.55
2018-09-28T21:17:33.516Z,68.57
2018-09-28T21:20:02.438Z,67.87
2018-09-28T21:22:31.406Z,69.31
2018-09-28T21:25:00.358Z,68.96
2018-09-28T21:27:29.357Z,69.23
2018-09-28T21:29:58.416Z,68.81
2018-09-28T21:32:27.338Z,68.93
2018-09-28T21:34:56.303Z,69.06
2018-09-28T21:37:25.374Z,69.32
2018-09-28T21:39:54.565Z,69.53
2018-09-28T21:42:23.659Z,69.58
2018-09-28T21:44:52.638Z,69.88
2018-09-28T21:47:21.553Z,69.55
2018-09-28T21:49:50.502Z,69.20
2018-09-28T21:52:19.470Z,69.82
2018-09-28T21:54:48.415Z,70.01
2018-09-28T21:57:17.358Z,69.37
2018-09-28T21:59:46.497Z,69.85
2018-09-28T22:02:15.425Z,69.37
2018-09-28T22:04:44.420Z,70.43
2018-09-28T22:07:13.390Z,70.23
2018-09-28T22:09:42.397Z,69.94
2018-09-28T22:12:11.772Z,70.47
2018-09-28T22:14:40.753Z,70.81
2018-09-28T22:17:09.698Z,70.35
2018-09-28T22:19:38.805Z,70.01
2018-09-28T22:22:07.940Z,69.99
2018-09-28T22:24:42.860Z,71.32
2018-09-28T22:27:12.926Z,70.74
2018-09-28T22:29:43.280Z,71.30
2018-09-28T22:32:13.174Z,71.15
2018-09-28T22:34:44.485Z,70.88
2018-09-28T22:37:14.496Z,71.73
2018-09-28T22:39:44.432Z,70.95
2018-09-28T22:42:14.810Z,70.96
2018-09-28T22:44:44.762Z,70.79
2018-09-28T22:47:14.724Z,71.10
2018-09-28T22:49:44.759Z,70.97
2018-09-28T22:52:13.906Z,71.49
2018-09-28T22:54:42.888Z,71.05
2018-09-28T22:57:11.820Z,71.24
2018-09-28T22:59:40.795Z,71.77
2018-09-28T23:02:09.753Z,71.37
2018-09-28T23:04:38.760Z,70.65
2018-09-28T23:07:07.782Z,70.96
2018-09-28T23:09:36.885Z,70.63
2018-09-28T23:12:05.855Z,71.75
2018-09-28T23:14:34.819Z,71.02
2018-09-28T23:17:03.768Z,71.31
2018-09-28T23:19:32.704Z,71.42
2018-09-28T23:22:01.668Z,71.30
2018-09-28T23:24:30.617Z,71.49
2018-09-28T23:26:59.836Z,72.16
2018-09-28T23:29:28.818Z,72.24
2018-09-28T23:31:57.754Z,72.00
2018-09-28T23:34:26.996Z,71.52
2018-09-28T23:36:55.951Z,72.47
2018-09-28T23:39:24.850Z,72.59
2018-09-28T23:41:53.794Z,72.81
2018-09-28T23:44:22.727Z,72.97
2018-09-28T23:46:51.680Z,72.95
2018-09-28T23:49:20.630Z,72.82
2018-09-28T23:51:49.989Z,73.34
2018-09-28T23:54:19.274Z,72.83
2018-09-28T23:56:48.182Z,73.06
2018-09-28T23:59:17.136Z,73.56
